sensor_id;sensor_type;location;lat;lon;timestamp;pressure;altitude;pressure_sealevel;temperature;humidity
46876;BME280;32866;50.160;14.768;2022-11-18T00:00:23;97877.97;;;3.21;100.00
46876;BME280;32866;50.160;14.768;2022-11-18T00:02:48;97862.22;;;3.32;100.00
46876;BME280;32866;50.160;14.768;2022-11-18T00:05:13;97809.47;;;3.08;100.00
46876;BME280;32866;50.160;14.768;2022-11-18T00:07:39;97807.78;;;2.97;100.00
46876;BME280;32866;50.160;14.768;2022-11-18T00:10:04;97826.44;;;3.08;100.00
46876;BME280;32866;50.160;14.768;2022-11-18T00:12:30;97856.06;;;3.32;100.00
46876;BME280;32866;50.160;14.768;2022-11-18T00:25:18;97800.50;;;2.94;100.00
46876;BME280;32866;50.160;14.768;2022-11-18T00:27:44;97824.25;;;3.03;100.00
46876;BME280;32866;50.160;14.768;2022-11-18T00:30:10;97846.09;;;3.12;100.00
46876;BME280;32866;50.160;14.768;2022-11-18T00:32:35;97844.47;;;3.15;100.00
46876;BME280;32866;50.160;14.768;2022-11-18T00:35:00;97840.03;;;2.92;100.00
46876;BME280;32866;50.160;14.768;2022-11-18T00:37:26;97845.16;;;3.03;100.00
46876;BME280;32866;50.160;14.768;2022-11-18T00:39:51;97844.91;;;2.97;100.00
46876;BME280;32866;50.160;14.768;2022-11-18T00:42:16;97844.31;;;3.06;100.00
46876;BME280;32866;50.160;14.768;2022-11-18T00:45:00;97818.78;;;2.74;100.00
46876;BME280;32866;50.160;14.768;2022-11-18T00:47:26;97847.53;;;3.01;100.00
46876;BME280;32866;50.160;14.768;2022-11-18T00:49:51;97842.63;;;3.12;100.00
46876;BME280;32866;50.160;14.768;2022-11-18T00:52:16;97856.91;;;2.96;100.00
46876;BME280;32866;50.160;14.768;2022-11-18T00:54:42;97809.16;;;2.73;100.00
46876;BME280;32866;50.160;14.768;2022-11-18T00:57:07;97849.22;;;2.94;100.00
46876;BME280;32866;50.160;14.768;2022-11-18T00:59:32;97842.97;;;2.97;100.00
46876;BME280;32866;50.160;14.768;2022-11-18T01:01:58;97848.47;;;2.94;100.00
46876;BME280;32866;50.160;14.768;2022-11-18T01:04:23;97846.94;;;2.93;100.00
46876;BME280;32866;50.160;14.768;2022-11-18T01:06:48;97823.94;;;2.85;100.00
46876;BME280;32866;50.160;14.768;2022-11-18T01:09:14;97805.59;;;2.76;100.00
46876;BME280;32866;50.160;14.768;2022-11-18T01:11:39;97840.44;;;3.07;100.00
46876;BME280;32866;50.160;14.768;2022-11-18T01:14:24;97837.38;;;3.05;100.00
46876;BME280;32866;50.160;14.768;2022-11-18T01:16:53;97837.97;;;3.12;100.00
46876;BME280;32866;50.160;14.768;2022-11-18T01:19:18;97807.78;;;2.81;100.00
46876;BME280;32866;50.160;14.768;2022-11-18T01:21:44;97831.97;;;3.05;100.00
46876;BME280;32866;50.160;14.768;2022-11-18T01:24:10;97791.84;;;2.70;100.00
46876;BME280;32866;50.160;14.768;2022-11-18T01:26:35;97831.88;;;3.08;100.00
46876;BME280;32866;50.160;14.768;2022-11-18T01:29:00;97823.19;;;3.01;100.00
46876;BME280;32866;50.160;14.768;2022-11-18T01:31:26;97804.44;;;2.77;100.00
46876;BME280;32866;50.160;14.768;2022-11-18T01:33:51;97830.38;;;3.07;100.00
46876;BME280;32866;50.160;14.768;2022-11-18T01:36:25;97827.16;;;3.12;100.00
46876;BME280;32866;50.160;14.768;2022-11-18T01:38:51;97834.50;;;3.12;100.00
46876;BME280;32866;50.160;14.768;2022-11-18T01:41:24;97837.53;;;3.14;100.00
46876;BME280;32866;50.160;14.768;2022-11-18T01:44:01;97831.38;;;3.13;100.00
46876;BME280;32866;50.160;14.768;2022-11-18T01:46:28;97822.56;;;3.09;100.00
46876;BME280;32866;50.160;14.768;2022-11-18T01:49:06;97829.63;;;3.07;100.00
46876;BME280;32866;50.160;14.768;2022-11-18T01:51:43;97828.22;;;3.15;100.00
46876;BME280;32866;50.160;14.768;2022-11-18T01:54:13;97830.59;;;3.13;100.00
46876;BME280;32866;50.160;14.768;2022-11-18T01:56:43;97830.28;;;3.11;100.00
46876;BME280;32866;50.160;14.768;2022-11-18T01:59:13;97830.28;;;3.11;100.00
46876;BME280;32866;50.160;14.768;2022-11-18T02:01:39;97790.13;;;2.76;100.00
46876;BME280;32866;50.160;14.768;2022-11-18T02:04:06;97816.00;;;2.94;100.00
46876;BME280;32866;50.160;14.768;2022-11-18T02:06:33;97826.22;;;3.03;100.00
46876;BME280;32866;50.160;14.768;2022-11-18T02:08:59;97783.28;;;2.72;100.00
46876;BME280;32866;50.160;14.768;2022-11-18T02:11:25;97817.25;;;3.06;100.00
46876;BME280;32866;50.160;14.768;2022-11-18T02:14:09;97781.00;;;2.70;100.00
46876;BME280;32866;50.160;14.768;2022-11-18T02:20:07;97817.09;;;2.96;100.00
46876;BME280;32866;50.160;14.768;2022-11-18T02:22:54;97806.34;;;2.93;100.00
46876;BME280;32866;50.160;14.768;2022-11-18T02:30:39;97806.78;;;2.91;100.00
46876;BME280;32866;50.160;14.768;2022-11-18T02:33:12;97779.91;;;2.68;100.00
46876;BME280;32866;50.160;14.768;2022-11-18T02:35:48;97800.38;;;2.85;100.00
46876;BME280;32866;50.160;14.768;2022-11-18T02:38:33;97801.84;;;3.03;100.00
46876;BME280;32866;50.160;14.768;2022-11-18T02:41:07;97794.69;;;2.96;100.00
46876;BME280;32866;50.160;14.768;2022-11-18T02:43:42;97808.03;;;3.03;100.00
46876;BME280;32866;50.160;14.768;2022-11-18T02:46:14;97794.44;;;3.07;100.00
46876;BME280;32866;50.160;14.768;2022-11-18T02:48:45;97777.09;;;2.88;100.00
46876;BME280;32866;50.160;14.768;2022-11-18T02:51:16;97775.31;;;2.81;100.00
46876;BME280;32866;50.160;14.768;2022-11-18T02:53:45;97798.22;;;2.93;100.00
46876;BME280;32866;50.160;14.768;2022-11-18T02:56:12;97785.91;;;2.92;100.00
46876;BME280;32866;50.160;14.768;2022-11-18T02:58:38;97788.19;;;2.93;100.00
46876;BME280;32866;50.160;14.768;2022-11-18T03:01:03;97781.69;;;2.74;100.00
46876;BME280;32866;50.160;14.768;2022-11-18T03:03:30;97789.69;;;2.94;100.00
46876;BME280;32866;50.160;14.768;2022-11-18T03:08:48;97782.09;;;2.89;100.00
46876;BME280;32866;50.160;14.768;2022-11-18T03:11:23;97775.31;;;2.81;100.00
46876;BME280;32866;50.160;14.768;2022-11-18T03:20:09;97749.13;;;2.78;100.00
46876;BME280;32866;50.160;14.768;2022-11-18T03:28:18;97756.09;;;3.08;100.00
46876;BME280;32866;50.160;14.768;2022-11-18T03:30:55;97732.66;;;2.72;100.00
46876;BME280;32866;50.160;14.768;2022-11-18T03:33:29;97757.91;;;2.99;100.00
46876;BME280;32866;50.160;14.768;2022-11-18T03:35:57;97754.28;;;2.89;100.00
46876;BME280;32866;50.160;14.768;2022-11-18T03:38:29;97749.09;;;2.94;100.00
46876;BME280;32866;50.160;14.768;2022-11-18T03:40:58;97757.91;;;2.82;100.00
46876;BME280;32866;50.160;14.768;2022-11-18T03:43:30;97762.06;;;2.87;100.00
46876;BME280;32866;50.160;14.768;2022-11-18T03:46:05;97751.91;;;2.58;100.00
46876;BME280;32866;50.160;14.768;2022-11-18T03:48:36;97750.09;;;2.55;100.00
46876;BME280;32866;50.160;14.768;2022-11-18T03:51:07;97778.72;;;2.69;100.00
46876;BME280;32866;50.160;14.768;2022-11-18T03:53:37;97773.81;;;2.80;100.00
46876;BME280;32866;50.160;14.768;2022-11-18T03:56:13;97759.47;;;2.67;100.00
46876;BME280;32866;50.160;14.768;2022-11-18T03:58:53;97784.72;;;2.76;100.00
46876;BME280;32866;50.160;14.768;2022-11-18T04:01:42;97765.19;;;2.69;100.00
46876;BME280;32866;50.160;14.768;2022-11-18T04:04:11;97780.75;;;2.81;100.00
46876;BME280;32866;50.160;14.768;2022-11-18T04:06:41;97781.06;;;3.00;100.00
46876;BME280;32866;50.160;14.768;2022-11-18T04:09:16;97780.41;;;2.95;100.00
46876;BME280;32866;50.160;14.768;2022-11-18T04:11:47;97779.22;;;2.80;100.00
46876;BME280;32866;50.160;14.768;2022-11-18T04:14:28;97776.84;;;2.82;100.00
46876;BME280;32866;50.160;14.768;2022-11-18T04:16:54;97781.25;;;2.92;100.00
46876;BME280;32866;50.160;14.768;2022-11-18T04:19:19;97782.59;;;2.84;100.00
46876;BME280;32866;50.160;14.768;2022-11-18T04:21:46;97784.47;;;2.87;100.00
46876;BME280;32866;50.160;14.768;2022-11-18T04:24:12;97786.25;;;2.77;100.00
46876;BME280;32866;50.160;14.768;2022-11-18T04:26:38;97738.34;;;2.45;100.00
46876;BME280;32866;50.160;14.768;2022-11-18T04:29:03;97744.91;;;2.44;100.00
46876;BME280;32866;50.160;14.768;2022-11-18T04:31:28;97789.63;;;2.65;100.00
46876;BME280;32866;50.160;14.768;2022-11-18T04:33:54;97786.84;;;2.69;100.00
46876;BME280;32866;50.160;14.768;2022-11-18T04:36:19;97766.88;;;2.46;100.00
46876;BME280;32866;50.160;14.768;2022-11-18T04:38:44;97789.78;;;2.74;100.00
46876;BME280;32866;50.160;14.768;2022-11-18T04:41:10;97742.47;;;2.50;100.00
46876;BME280;32866;50.160;14.768;2022-11-18T04:43:36;97759.03;;;2.52;100.00
46876;BME280;32866;50.160;14.768;2022-11-18T04:46:01;97778.53;;;2.92;100.00
46876;BME280;32866;50.160;14.768;2022-11-18T04:48:27;97781.34;;;2.89;100.00
46876;BME280;32866;50.160;14.768;2022-11-18T04:50:52;97739.28;;;2.55;100.00
46876;BME280;32866;50.160;14.768;2022-11-18T04:53:17;97772.28;;;2.95;100.00
46876;BME280;32866;50.160;14.768;2022-11-18T04:55:43;97778.03;;;2.97;100.00
46876;BME280;32866;50.160;14.768;2022-11-18T04:58:08;97770.25;;;2.83;100.00
46876;BME280;32866;50.160;14.768;2022-11-18T05:00:33;97768.94;;;2.75;100.00
46876;BME280;32866;50.160;14.768;2022-11-18T05:02:59;97730.28;;;2.58;100.00
46876;BME280;32866;50.160;14.768;2022-11-18T05:05:24;97739.66;;;2.70;100.00
46876;BME280;32866;50.160;14.768;2022-11-18T05:07:50;97743.13;;;2.70;100.00
46876;BME280;32866;50.160;14.768;2022-11-18T05:10:15;97784.38;;;2.91;100.00
46876;BME280;32866;50.160;14.768;2022-11-18T05:12:41;97767.81;;;2.89;100.00
46876;BME280;32866;50.160;14.768;2022-11-18T05:15:19;97771.94;;;2.93;100.00
46876;BME280;32866;50.160;14.768;2022-11-18T05:17:45;97765.66;;;2.96;100.00
46876;BME280;32866;50.160;14.768;2022-11-18T05:20:12;97765.94;;;2.86;100.00
46876;BME280;32866;50.160;14.768;2022-11-18T05:22:38;97760.13;;;2.87;100.00
46876;BME280;32866;50.160;14.768;2022-11-18T05:25:04;97766.59;;;2.90;100.00
46876;BME280;32866;50.160;14.768;2022-11-18T05:27:29;97775.06;;;2.92;100.00
46876;BME280;32866;50.160;14.768;2022-11-18T05:29:54;97770.59;;;2.85;100.00
46876;BME280;32866;50.160;14.768;2022-11-18T05:32:20;97763.25;;;2.86;100.00
46876;BME280;32866;50.160;14.768;2022-11-18T05:34:45;97742.63;;;2.75;100.00
46876;BME280;32866;50.160;14.768;2022-11-18T05:37:11;97761.28;;;2.70;100.00
46876;BME280;32866;50.160;14.768;2022-11-18T05:39:36;97769.50;;;2.83;100.00
46876;BME280;32866;50.160;14.768;2022-11-18T05:42:02;97737.31;;;2.55;100.00
46876;BME280;32866;50.160;14.768;2022-11-18T05:44:46;97772.28;;;2.79;100.00
46876;BME280;32866;50.160;14.768;2022-11-18T05:47:11;97774.28;;;2.91;100.00
46876;BME280;32866;50.160;14.768;2022-11-18T05:49:37;97728.97;;;2.50;100.00
46876;BME280;32866;50.160;14.768;2022-11-18T05:52:02;97759.28;;;2.74;100.00
46876;BME280;32866;50.160;14.768;2022-11-18T05:54:28;97779.56;;;2.99;100.00
46876;BME280;32866;50.160;14.768;2022-11-18T05:56:54;97753.88;;;2.74;100.00
46876;BME280;32866;50.160;14.768;2022-11-18T05:59:19;97777.19;;;3.01;100.00
46876;BME280;32866;50.160;14.768;2022-11-18T06:01:56;97771.06;;;2.96;100.00
46876;BME280;32866;50.160;14.768;2022-11-18T06:07:17;97739.34;;;2.51;100.00
46876;BME280;32866;50.160;14.768;2022-11-18T06:09:47;97745.09;;;2.53;100.00
46876;BME280;32866;50.160;14.768;2022-11-18T06:12:17;97773.81;;;2.64;100.00
46876;BME280;32866;50.160;14.768;2022-11-18T06:14:47;97796.97;;;2.81;100.00
46876;BME280;32866;50.160;14.768;2022-11-18T06:17:18;97780.00;;;2.64;100.00
46876;BME280;32866;50.160;14.768;2022-11-18T06:19:44;97797.41;;;2.79;100.00
46876;BME280;32866;50.160;14.768;2022-11-18T06:22:10;97768.25;;;2.54;100.00
46876;BME280;32866;50.160;14.768;2022-11-18T06:24:36;97793.28;;;2.75;100.00
46876;BME280;32866;50.160;14.768;2022-11-18T06:27:02;97781.25;;;2.59;100.00
46876;BME280;32866;50.160;14.768;2022-11-18T06:29:29;97781.84;;;2.67;100.00
46876;BME280;32866;50.160;14.768;2022-11-18T06:31:54;97796.22;;;2.81;100.00
46876;BME280;32866;50.160;14.768;2022-11-18T06:34:20;97784.66;;;2.64;100.00
46876;BME280;32866;50.160;14.768;2022-11-18T06:36:45;97803.72;;;2.73;100.00
46876;BME280;32866;50.160;14.768;2022-11-18T06:39:11;97816.34;;;2.79;100.00
46876;BME280;32866;50.160;14.768;2022-11-18T06:41:36;97775.28;;;2.52;100.00
46876;BME280;32866;50.160;14.768;2022-11-18T06:44:01;97763.75;;;2.48;100.00
46876;BME280;32866;50.160;14.768;2022-11-18T06:46:27;97826.91;;;2.74;100.00
46876;BME280;32866;50.160;14.768;2022-11-18T06:49:11;97808.47;;;2.52;100.00
46876;BME280;32866;50.160;14.768;2022-11-18T06:51:36;97829.09;;;2.79;100.00
46876;BME280;32866;50.160;14.768;2022-11-18T06:54:02;97837.41;;;2.72;100.00
46876;BME280;32866;50.160;14.768;2022-11-18T06:56:27;97827.25;;;2.76;100.00
46876;BME280;32866;50.160;14.768;2022-11-18T06:58:57;97838.91;;;2.73;100.00
46876;BME280;32866;50.160;14.768;2022-11-18T07:01:28;97842.03;;;2.71;100.00
46876;BME280;32866;50.160;14.768;2022-11-18T07:03:54;97844.31;;;2.73;100.00
46876;BME280;32866;50.160;14.768;2022-11-18T07:06:21;97845.66;;;2.81;100.00
46876;BME280;32866;50.160;14.768;2022-11-18T07:08:47;97850.16;;;2.88;100.00
46876;BME280;32866;50.160;14.768;2022-11-18T07:11:15;97846.69;;;2.87;100.00
46876;BME280;32866;50.160;14.768;2022-11-18T07:13:41;97850.75;;;2.95;100.00
46876;BME280;32866;50.160;14.768;2022-11-18T07:16:09;97830.44;;;2.71;100.00
46876;BME280;32866;50.160;14.768;2022-11-18T07:18:37;97846.69;;;3.04;100.00
46876;BME280;32866;50.160;14.768;2022-11-18T07:21:04;97847.13;;;2.86;100.00
46876;BME280;32866;50.160;14.768;2022-11-18T07:23:31;97825.75;;;2.75;100.00
46876;BME280;32866;50.160;14.768;2022-11-18T07:25:57;97845.84;;;2.90;100.00
46876;BME280;32866;50.160;14.768;2022-11-18T07:28:22;97855.91;;;2.90;100.00
46876;BME280;32866;50.160;14.768;2022-11-18T07:30:48;97858.69;;;2.86;100.00
46876;BME280;32866;50.160;14.768;2022-11-18T07:33:13;97858.03;;;2.82;100.00
46876;BME280;32866;50.160;14.768;2022-11-18T07:35:38;97831.16;;;2.75;100.00
46876;BME280;32866;50.160;14.768;2022-11-18T07:38:04;97859.88;;;3.02;100.00
46876;BME280;32866;50.160;14.768;2022-11-18T07:40:29;97863.41;;;3.15;100.00
46876;BME280;32866;50.160;14.768;2022-11-18T07:42:54;97853.63;;;3.05;100.00
46876;BME280;32866;50.160;14.768;2022-11-18T07:45:20;97831.03;;;3.11;100.00
46876;BME280;32866;50.160;14.768;2022-11-18T07:47:45;97863.91;;;3.26;100.00
46876;BME280;32866;50.160;14.768;2022-11-18T07:50:10;97823.31;;;3.10;100.00
46876;BME280;32866;50.160;14.768;2022-11-18T07:52:36;97849.81;;;3.19;100.00
46876;BME280;32866;50.160;14.768;2022-11-18T07:55:01;97845.66;;;3.14;100.00
46876;BME280;32866;50.160;14.768;2022-11-18T07:57:26;97843.47;;;3.25;100.00
46876;BME280;32866;50.160;14.768;2022-11-18T07:59:52;97828.31;;;3.11;100.00
46876;BME280;32866;50.160;14.768;2022-11-18T08:02:17;97849.88;;;3.31;100.00
46876;BME280;32866;50.160;14.768;2022-11-18T08:04:43;97830.00;;;3.22;100.00
46876;BME280;32866;50.160;14.768;2022-11-18T08:07:08;97851.81;;;3.31;100.00
46876;BME280;32866;50.160;14.768;2022-11-18T08:09:34;97855.78;;;3.43;100.00
46876;BME280;32866;50.160;14.768;2022-11-18T08:11:59;97864.84;;;3.36;100.00
46876;BME280;32866;50.160;14.768;2022-11-18T08:14:26;97834.84;;;3.14;100.00
46876;BME280;32866;50.160;14.768;2022-11-18T08:16:53;97865.25;;;3.34;100.00
46876;BME280;32866;50.160;14.768;2022-11-18T08:19:19;97851.06;;;3.30;100.00
46876;BME280;32866;50.160;14.768;2022-11-18T08:21:44;97863.66;;;3.37;100.00
46876;BME280;32866;50.160;14.768;2022-11-18T08:24:10;97821.63;;;3.32;100.00
46876;BME280;32866;50.160;14.768;2022-11-18T08:26:35;97851.28;;;3.52;100.00
46876;BME280;32866;50.160;14.768;2022-11-18T08:29:01;97850.03;;;3.70;100.00
46876;BME280;32866;50.160;14.768;2022-11-18T08:31:27;97862.63;;;3.77;100.00
46876;BME280;32866;50.160;14.768;2022-11-18T08:33:55;97859.34;;;3.69;100.00
46876;BME280;32866;50.160;14.768;2022-11-18T08:36:23;97870.91;;;3.86;100.00
46876;BME280;32866;50.160;14.768;2022-11-18T08:38:49;97826.03;;;3.56;100.00
46876;BME280;32866;50.160;14.768;2022-11-18T08:41:18;97825.75;;;3.66;100.00
46876;BME280;32866;50.160;14.768;2022-11-18T08:43:44;97859.91;;;3.77;100.00
46876;BME280;32866;50.160;14.768;2022-11-18T08:46:09;97866.94;;;4.03;100.00
46876;BME280;32866;50.160;14.768;2022-11-18T08:48:35;97876.88;;;3.94;100.00
46876;BME280;32866;50.160;14.768;2022-11-18T08:51:00;97865.22;;;3.80;100.00
46876;BME280;32866;50.160;14.768;2022-11-18T08:53:26;97864.09;;;3.65;100.00
46876;BME280;32866;50.160;14.768;2022-11-18T08:55:55;97875.47;;;3.89;100.00
46876;BME280;32866;50.160;14.768;2022-11-18T08:58:21;97861.13;;;3.76;100.00
46876;BME280;32866;50.160;14.768;2022-11-18T09:00:47;97830.78;;;3.51;100.00
46876;BME280;32866;50.160;14.768;2022-11-18T09:03:12;97834.63;;;3.67;100.00
46876;BME280;32866;50.160;14.768;2022-11-18T09:05:37;97868.13;;;4.02;100.00
46876;BME280;32866;50.160;14.768;2022-11-18T09:08:03;97878.97;;;4.02;100.00
46876;BME280;32866;50.160;14.768;2022-11-18T09:10:29;97858.44;;;3.88;100.00
46876;BME280;32866;50.160;14.768;2022-11-18T09:12:54;97817.50;;;3.57;100.00
46876;BME280;32866;50.160;14.768;2022-11-18T09:15:20;97872.94;;;3.82;100.00
46876;BME280;32866;50.160;14.768;2022-11-18T09:17:48;97869.63;;;3.61;100.00
46876;BME280;32866;50.160;14.768;2022-11-18T09:20:13;97874.84;;;3.68;100.00
46876;BME280;32866;50.160;14.768;2022-11-18T09:22:39;97887.72;;;3.64;100.00
46876;BME280;32866;50.160;14.768;2022-11-18T09:25:04;97844.81;;;3.33;100.00
46876;BME280;32866;50.160;14.768;2022-11-18T09:27:30;97831.84;;;3.25;100.00
46876;BME280;32866;50.160;14.768;2022-11-18T09:29:55;97866.59;;;3.43;100.00
46876;BME280;32866;50.160;14.768;2022-11-18T09:32:20;97867.00;;;3.58;100.00
46876;BME280;32866;50.160;14.768;2022-11-18T09:34:46;97862.25;;;3.62;100.00
46876;BME280;32866;50.160;14.768;2022-11-18T09:37:11;97877.63;;;3.65;100.00
46876;BME280;32866;50.160;14.768;2022-11-18T09:39:37;97873.31;;;3.67;100.00
46876;BME280;32866;50.160;14.768;2022-11-18T09:42:10;97877.03;;;3.74;100.00
46876;BME280;32866;50.160;14.768;2022-11-18T09:44:48;97878.59;;;3.58;100.00
46876;BME280;32866;50.160;14.768;2022-11-18T09:47:27;97873.06;;;3.32;100.00
46876;BME280;32866;50.160;14.768;2022-11-18T09:50:09;97846.16;;;3.25;100.00
46876;BME280;32866;50.160;14.768;2022-11-18T09:52:43;97884.38;;;3.44;100.00
46876;BME280;32866;50.160;14.768;2022-11-18T09:55:12;97887.63;;;3.39;100.00
46876;BME280;32866;50.160;14.768;2022-11-18T09:57:48;97891.22;;;3.48;100.00
46876;BME280;32866;50.160;14.768;2022-11-18T10:00:19;97897.94;;;3.44;100.00
46876;BME280;32866;50.160;14.768;2022-11-18T10:05:28;97908.06;;;3.56;100.00
46876;BME280;32866;50.160;14.768;2022-11-18T10:08:02;97914.13;;;3.60;100.00
46876;BME280;32866;50.160;14.768;2022-11-18T10:16:15;97914.44;;;3.33;100.00
46876;BME280;32866;50.160;14.768;2022-11-18T10:19:10;97917.31;;;3.42;100.00
46876;BME280;32866;50.160;14.768;2022-11-18T10:24:12;97906.13;;;3.40;100.00
46876;BME280;32866;50.160;14.768;2022-11-18T10:26:40;97872.81;;;3.10;100.00
46876;BME280;32866;50.160;14.768;2022-11-18T10:29:07;97906.91;;;3.41;100.00
46876;BME280;32866;50.160;14.768;2022-11-18T10:31:36;97892.88;;;3.13;100.00
46876;BME280;32866;50.160;14.768;2022-11-18T10:34:02;97919.41;;;3.34;100.00
46876;BME280;32866;50.160;14.768;2022-11-18T10:36:32;97906.38;;;3.46;100.00
46876;BME280;32866;50.160;14.768;2022-11-18T10:39:12;97907.13;;;3.46;100.00
46876;BME280;32866;50.160;14.768;2022-11-18T10:41:48;97890.56;;;3.28;100.00
46876;BME280;32866;50.160;14.768;2022-11-18T10:44:38;97901.56;;;3.37;100.00
46876;BME280;32866;50.160;14.768;2022-11-18T10:47:18;97873.41;;;3.18;100.00
46876;BME280;32866;50.160;14.768;2022-11-18T10:49:45;97891.50;;;3.38;100.00
46876;BME280;32866;50.160;14.768;2022-11-18T10:52:13;97902.75;;;3.36;100.00
46876;BME280;32866;50.160;14.768;2022-11-18T10:54:39;97906.47;;;3.26;100.00
46876;BME280;32866;50.160;14.768;2022-11-18T10:57:06;97915.69;;;3.28;100.00
46876;BME280;32866;50.160;14.768;2022-11-18T10:59:51;97918.16;;;3.23;100.00
46876;BME280;32866;50.160;14.768;2022-11-18T11:04:51;97892.44;;;2.98;100.00
46876;BME280;32866;50.160;14.768;2022-11-18T11:07:27;97933.56;;;3.09;100.00
46876;BME280;32866;50.160;14.768;2022-11-18T11:12:34;97937.53;;;3.21;100.00
46876;BME280;32866;50.160;14.768;2022-11-18T11:15:11;97937.63;;;3.18;100.00
46876;BME280;32866;50.160;14.768;2022-11-18T11:17:51;97948.44;;;3.18;100.00
46876;BME280;32866;50.160;14.768;2022-11-18T11:20:38;97945.72;;;3.01;100.00
46876;BME280;32866;50.160;14.768;2022-11-18T11:23:14;97938.53;;;3.11;100.00
46876;BME280;32866;50.160;14.768;2022-11-18T11:25:56;97930.81;;;2.93;100.00
46876;BME280;32866;50.160;14.768;2022-11-18T11:34:10;97937.41;;;2.75;100.00
46876;BME280;32866;50.160;14.768;2022-11-18T11:42:43;97945.72;;;3.01;100.00
46876;BME280;32866;50.160;14.768;2022-11-18T11:50:47;97964.28;;;2.83;100.00
46876;BME280;32866;50.160;14.768;2022-11-18T11:58:49;97971.59;;;2.86;100.00
46876;BME280;32866;50.160;14.768;2022-11-18T12:01:57;97976.19;;;2.69;100.00
46876;BME280;32866;50.160;14.768;2022-11-18T12:04:51;97936.31;;;2.36;100.00
46876;BME280;32866;50.160;14.768;2022-11-18T12:07:25;97966.47;;;2.35;100.00
46876;BME280;32866;50.160;14.768;2022-11-18T12:12:37;97975.59;;;2.41;100.00
46876;BME280;32866;50.160;14.768;2022-11-18T12:15:17;97977.28;;;2.35;100.00
46876;BME280;32866;50.160;14.768;2022-11-18T12:20:45;97981.06;;;2.17;100.00
46876;BME280;32866;50.160;14.768;2022-11-18T12:23:21;97986.13;;;2.15;100.00
46876;BME280;32866;50.160;14.768;2022-11-18T12:30:47;97972.91;;;1.77;100.00
46876;BME280;32866;50.160;14.768;2022-11-18T12:33:14;97988.25;;;2.04;100.00
46876;BME280;32866;50.160;14.768;2022-11-18T12:35:46;97998.72;;;2.02;100.00
46876;BME280;32866;50.160;14.768;2022-11-18T12:38:30;98001.19;;;1.93;100.00
46876;BME280;32866;50.160;14.768;2022-11-18T12:40:55;98012.13;;;1.85;100.00
46876;BME280;32866;50.160;14.768;2022-11-18T12:46:08;98009.34;;;1.89;100.00
46876;BME280;32866;50.160;14.768;2022-11-18T12:48:39;97982.00;;;1.63;100.00
46876;BME280;32866;50.160;14.768;2022-11-18T12:53:40;98013.19;;;1.68;100.00
46876;BME280;32866;50.160;14.768;2022-11-18T12:58:48;98018.34;;;1.82;100.00
46876;BME280;32866;50.160;14.768;2022-11-18T13:01:23;98015.53;;;1.90;100.00
46876;BME280;32866;50.160;14.768;2022-11-18T13:03:49;98006.50;;;1.76;100.00
46876;BME280;32866;50.160;14.768;2022-11-18T13:06:23;98024.09;;;1.61;100.00
46876;BME280;32866;50.160;14.768;2022-11-18T13:08:53;98020.56;;;1.64;100.00
46876;BME280;32866;50.160;14.768;2022-11-18T13:11:20;98017.25;;;1.56;100.00
46876;BME280;32866;50.160;14.768;2022-11-18T13:14:05;98022.09;;;1.41;100.00
46876;BME280;32866;50.160;14.768;2022-11-18T13:16:49;98028.97;;;1.46;100.00
46876;BME280;32866;50.160;14.768;2022-11-18T13:19:33;98026.06;;;1.33;100.00
46876;BME280;32866;50.160;14.768;2022-11-18T13:22:00;98028.97;;;1.19;100.00
46876;BME280;32866;50.160;14.768;2022-11-18T13:24:48;98023.56;;;1.19;100.00
46876;BME280;32866;50.160;14.768;2022-11-18T13:29:59;98031.47;;;1.33;100.00
46876;BME280;32866;50.160;14.768;2022-11-18T13:32:27;97993.38;;;1.00;100.00
46876;BME280;32866;50.160;14.768;2022-11-18T13:34:55;98036.97;;;1.26;100.00
46876;BME280;32866;50.160;14.768;2022-11-18T13:37:23;98029.78;;;1.16;100.00
46876;BME280;32866;50.160;14.768;2022-11-18T13:39:50;98054.69;;;1.27;100.00
46876;BME280;32866;50.160;14.768;2022-11-18T13:42:21;98048.59;;;1.23;100.00
46876;BME280;32866;50.160;14.768;2022-11-18T13:44:54;98039.28;;;1.27;100.00
46876;BME280;32866;50.160;14.768;2022-11-18T13:47:34;98055.75;;;1.33;100.00
46876;BME280;32866;50.160;14.768;2022-11-18T13:53:00;98059.84;;;1.18;100.00
46876;BME280;32866;50.160;14.768;2022-11-18T13:55:31;98059.44;;;1.19;100.00
46876;BME280;32866;50.160;14.768;2022-11-18T13:58:02;98062.13;;;1.19;100.00
46876;BME280;32866;50.160;14.768;2022-11-18T14:00:29;98017.59;;;0.77;100.00
46876;BME280;32866;50.160;14.768;2022-11-18T14:03:04;98068.75;;;1.15;100.00
46876;BME280;32866;50.160;14.768;2022-11-18T14:05:30;98067.25;;;1.10;100.00
46876;BME280;32866;50.160;14.768;2022-11-18T14:07:59;98071.69;;;1.24;100.00
46876;BME280;32866;50.160;14.768;2022-11-18T14:10:42;98071.75;;;1.20;100.00
46876;BME280;32866;50.160;14.768;2022-11-18T14:13:23;98078.69;;;1.21;100.00
46876;BME280;32866;50.160;14.768;2022-11-18T14:15:49;98053.53;;;0.97;100.00
46876;BME280;32866;50.160;14.768;2022-11-18T14:18:32;98069.66;;;1.04;100.00
46876;BME280;32866;50.160;14.768;2022-11-18T14:20:59;98025.56;;;0.84;100.00
46876;BME280;32866;50.160;14.768;2022-11-18T14:23:30;98059.56;;;1.08;100.00
46876;BME280;32866;50.160;14.768;2022-11-18T14:25:58;98067.41;;;0.99;100.00
46876;BME280;32866;50.160;14.768;2022-11-18T14:28:27;98073.78;;;1.13;100.00
46876;BME280;32866;50.160;14.768;2022-11-18T14:30:59;98066.53;;;1.06;100.00
46876;BME280;32866;50.160;14.768;2022-11-18T14:33:33;98076.25;;;1.00;100.00
46876;BME280;32866;50.160;14.768;2022-11-18T14:36:02;98090.16;;;0.98;100.00
46876;BME280;32866;50.160;14.768;2022-11-18T14:38:46;98078.81;;;0.80;100.00
46876;BME280;32866;50.160;14.768;2022-11-18T14:41:14;98085.00;;;0.77;100.00